Weather at Brussels Airport

Public forecast

Using degrees Celsius for public forecast. Weather courtesy of forecast.io.

Current aviation weather report (METAR) for Brussels Airport

Retrieved 2021/07/27 07:20 UTC (21 minutes ago):

EBBR 270720Z 23007KT 200V270 9999 FEW015 19/15 Q1011 NOSIG

Aviation forecast (TAF) for Brussels Airport

Retrieved 2021/07/27 06:29 UTC (1 hour ago):

TAF EBBR 270500Z 2706/2812 21007KT 9999 FEW020TCU SCT040 TEMPO 2709/2721 4000 SHRA PROB30 TEMPO 2709/2718 VRB15G25KT 2500 TSRA BKN014CB TEMPO 2802/2807 BKN014 TEMPO 2809/2812 23015G25KT